関西国際空港の過去48時間の天気

関西国際空港 (Kansai intl)

現在時刻: 4/24 21:19 JST (4/24 12:19 UTC) 以下の時間は現地時間です。

過去48時間のMETAR気象情報
時間 風向 風速(m/s) 視程 気温(℃) 湿度(%) 気圧(hPa) 天気現象
24 21:00 6 10km以上 20 83 1005 弱いしゅう雨
24 20:30 6 10km以上 20 83 1005
24 20:00 南南東 5 10km以上 19 88 1005 弱いしゅう雨
24 19:30 6 10km以上 19 88 1005 弱いしゅう雨
24 19:00 南南東 4 10km以上 19 88 1005 弱いしゅう雨
24 18:30 南南東 5 10km以上 19 88 1006 弱いしゅう雨
24 18:00 南南東 5 9,000m 18 94 1006 弱いしゅう雨
24 17:30 3 8,000m 18 94 1007 弱いしゅう雨
24 17:00 3 10km以上 17 100 1007 弱いしゅう雨
24 16:30 東北東 2 10km以上 17 100 1007 弱いしゅう雨
24 16:00 北東 4 10km以上 18 94 1008 弱いしゅう雨
24 15:30 北東 4 10km以上 18 94 1008 弱いしゅう雨
24 15:00 北北東 3 10km以上 18 94 1008 弱いしゅう雨
24 14:30 東北東 3 10km以上 18 94 1008 弱いしゅう雨
24 14:00 東南東 4 8,000m 18 94 1009 弱いしゅう雨
24 13:41 南東 5 8,000m 18 88 1009 弱いしゅう雨
24 13:30 南東 6 8,000m 18 88 1009 しゅう雨
24 13:00 南南東 5 6,000m 18 88 1010 しゅう雨 もや
24 12:30 6 6,000m 18 94 1011 弱いしゅう雨 もや
24 12:20 5 6,000m 18 88 1011 しゅう雨 もや
24 12:00 6 6,000m 18 88 1011 弱いしゅう雨 もや
24 11:30 5 6,000m 19 83 1011 弱いしゅう雨 もや
24 11:16 5 6,000m 18 88 1012 しゅう雨 もや
24 11:00 南南西 7 10km以上 19 83 1012 弱いしゅう雨
24 10:30 7 10km以上 19 78 1012 弱いしゅう雨
24 10:11 8 10km以上 20 73 1012 弱いしゅう雨
24 10:00 8 10km以上 20 73 1012 弱いしゅう雨
24 09:30 9 10km以上 20 73 1012
24 09:00 5 10km以上 21 69 1012
24 08:30 南南東 5 10km以上 20 68 1012
24 08:00 南南東 5 10km以上 20 68 1012
24 07:30 6 10km以上 20 68 1013
24 07:00 南南東 5 10km以上 20 68 1013
24 06:30 7 10km以上 20 68 1013
24 06:00 5 10km以上 20 68 1013
24 05:30 5 10km以上 20 68 1013
24 05:00 南南東 5 10km以上 19 73 1013
24 04:30 5 10km以上 19 73 1013
24 04:00 4 10km以上 19 73 1013
24 03:30 6 10km以上 19 73 1014
24 03:00 4 10km以上 19 73 1014
24 02:30 南南東 3 10km以上 19 73 1014
24 02:00 南南東 4 10km以上 19 73 1014
24 01:30 4 10km以上 19 78 1015
24 01:00 南南東 4 10km以上 19 78 1015
24 00:30 5 10km以上 20 68 1015
24 00:00 南南東 4 10km以上 19 73 1016
23 23:30 6 10km以上 19 73 1016
23 23:00 5 10km以上 19 73 1016
23 22:30 5 10km以上 19 73 1017
23 22:00 6 10km以上 19 73 1017
23 21:30 6 10km以上 20 64 1017
23 21:00 4 10km以上 20 64 1017
23 20:30 4 10km以上 19 68 1017
23 20:00 5 10km以上 19 68 1017
23 19:30 南南西 6 10km以上 19 68 1017
23 19:00 南南西 6 10km以上 20 64 1016
23 18:30 南南西 7 10km以上 19 68 1016
23 18:00 南西 7 10km以上 20 64 1016
23 17:30 南西 8 10km以上 20 64 1015
23 17:00 南西 8 10km以上 21 60 1015
23 16:30 南西 8 10km以上 21 60 1015
23 16:00 南西 8 10km以上 22 57 1015
23 15:30 南西 9 10km以上 23 53 1015
23 15:00 南西 8 10km以上 24 50 1015
23 14:30 南西 8 10km以上 24 50 1016
23 14:00 南西 9 10km以上 23 53 1016
23 13:30 南西 9 10km以上 22 57 1016
23 13:00 南西 9 10km以上 23 53 1017
23 12:30 南西 8 10km以上 23 53 1017
23 12:00 南西 8 10km以上 22 60 1017
23 11:30 西南西 5 10km以上 23 57 1017
23 11:28 西 5 10km以上 23 53 1017
23 11:00 北北西 3 10km以上 22 57 1018
23 10:30 北北西 2 10km以上 21 60 1018
23 10:00 3 10km以上 22 60 1018
23 09:30 北北西 3 10km以上 21 64 1019
23 09:00 不定 1 10km以上 20 64 1019
23 08:30 2 10km以上 20 64 1019
23 08:00 2 10km以上 19 73 1019
23 07:30 不定 1 10km以上 18 73 1019
23 07:00 南東 2 10km以上 17 77 1019
23 06:30 東南東 2 10km以上 17 83 1019
23 06:00 静穏 0 10km以上 16 82 1019
23 05:30 不定 1 10km以上 16 88 1018
23 05:00 南東 3 10km以上 17 77 1018
23 04:30 南東 3 10km以上 17 83 1018
23 04:00 南東 3 10km以上 16 88 1018
23 03:30 南東 2 10km以上 16 88 1018
23 03:00 南東 1 10km以上 16 88 1018
23 02:30 北北東 1 8,000m 16 88 1018
23 02:00 不定 1 6,000m 17 83 1018
23 01:30 不定 1 10km以上 17 83 1018
23 01:00 1 10km以上 17 83 1018
23 00:30 2 10km以上 17 83 1018
23 00:00 南東 2 10km以上 17 83 1018
22 23:30 南南東 2 10km以上 17 83 1018
22 23:00 南南東 2 10km以上 17 83 1018
22 22:30 東南東 2 10km以上 18 77 1019
22 22:00 2 10km以上 18 77 1019
22 21:30 南南西 4 10km以上 18 73 1019
RJBB 241200Z 18012KT 9999 -SHRA FEW010 BKN020 20/17 Q1005 NOSIG
RJBB 241130Z 18012KT 9999 FEW010 BKN025 20/17 Q1005 NOSIG
RJBB 241100Z 16009KT 9999 -SHRA FEW007 SCT025 BKN035 19/17 Q1005 NOSIG
RJBB 241030Z 17012KT 9999 -SHRA FEW007 SCT025 BKN035 19/17 Q1005 NOSIG
RJBB 241000Z 15008KT 9999 -SHRA FEW007 SCT035 BKN045 19/17 Q1005 TEMPO SHRA
RJBB 240930Z 16010KT 9999 -SHRA FEW007 SCT035 BKN045 19/17 Q1006 TEMPO 4000 SHRA BR
RJBB 240900Z 16010KT 120V180 9000 -SHRA FEW005 SCT035 BKN045 18/17 Q1006 TEMPO 4000 SHRA BR
RJBB 240830Z 10005KT 8000 R06R/P2000N R06L/P2000N -SHRA FEW005 SCT025 BKN035 18/17 Q1007 TEMPO SHRA
RJBB 240800Z 08005KT 9999 -SHRA FEW005 BKN035 BKN045 17/17 Q1007 NOSIG
RJBB 240730Z 07004KT 040V100 9999 -SHRA FEW025 SCT035 BKN045 17/17 Q1007 NOSIG
RJBB 240700Z 05008KT 9999 -SHRA FEW005 SCT025 BKN035 18/17 Q1008 NOSIG
RJBB 240630Z 05007KT 9999 -SHRA FEW005 SCT025 BKN035 18/17 Q1008 NOSIG
RJBB 240600Z 03006KT 9999 -SHRA FEW005 SCT025 BKN035 18/17 Q1008 NOSIG
RJBB 240530Z 07006KT 9999 -SHRA FEW020 SCT025 BKN035 18/17 Q1008 NOSIG
RJBB 240500Z 11008KT 8000 -SHRA FEW020 SCT030 BKN040 18/17 Q1009 NOSIG
RJBB 240441Z 13009KT 8000 -SHRA FEW020 SCT030 BKN040 18/16 Q1009 RMK 1CU020 3CU030 7CU040 A2982
RJBB 240430Z 14011KT 8000 SHRA FEW020 SCT030 BKN040 18/16 Q1009 BECMG 18015KT
RJBB 240400Z 16010KT 6000 SHRA BR FEW020 BKN030 18/16 Q1010 NOSIG
RJBB 240330Z 18012KT 6000 -SHRA BR FEW020 BKN030 18/17 Q1011 TEMPO SHRA
RJBB 240320Z 18010KT 6000 SHRA BR FEW020 BKN030 18/16 Q1011 RMK 1CU020 7CU030 A2986
RJBB 240300Z 19012KT 6000 -SHRA BR FEW020 BKN030 18/16 Q1011 TEMPO SHRA
RJBB 240230Z 19010KT 6000 -SHRA BR FEW025 BKN040 19/16 Q1011 TEMPO SHRA
RJBB 240216Z 19010KT 6000 R24L/P2000N R24R/P2000N SHRA BR FEW025 BKN040 18/16 Q1012 RMK 1CU025 7CU040 A2988
RJBB 240200Z 20013KT 9999 -SHRA FEW025 BKN040 BKN080 19/16 Q1012 NOSIG
RJBB 240130Z 19014KT 9999 -SHRA FEW025 BKN040 BKN080 19/15 Q1012 NOSIG
RJBB 240111Z 19015G25KT 9999 -SHRA FEW025 BKN040 BKN100 20/15 Q1012 RMK 1CU025 5CU040 7AC100 A2989
RJBB 240100Z 18016KT 9999 -SHRA FEW025 BKN040 BKN100 20/15 Q1012 NOSIG
RJBB 240030Z 17017KT 9999 FEW025 SCT040 BKN060 20/15 Q1012 NOSIG
RJBB 240000Z 17010KT 9999 FEW025 SCT040 BKN060 21/15 Q1012 NOSIG
RJBB 232330Z 16009KT 9999 FEW025 BKN060 BKN100 20/14 Q1012 NOSIG
RJBB 232300Z 16009KT 9999 FEW025 BKN060 BKN100 20/14 Q1012 NOSIG
RJBB 232230Z 18012KT 9999 FEW025 SCT060 BKN100 20/14 Q1013 NOSIG
RJBB 232200Z 16009KT 9999 FEW025 BKN060 BKN100 20/14 Q1013 NOSIG
RJBB 232130Z 17013KT 9999 FEW025 BKN060 BKN120 20/14 Q1013 NOSIG
RJBB 232100Z 17010KT 9999 FEW025 BKN060 BKN140 20/14 Q1013 NOSIG
RJBB 232030Z AUTO 18010KT 9999 NSC 20/14 Q1013 NOSIG
RJBB 232000Z AUTO 16009KT 9999 FEW045 SCT047 BKN080 19/14 Q1013 NOSIG
RJBB 231930Z AUTO 17009KT 9999 SCT048 SCT090 BKN100 19/14 Q1013 NOSIG
RJBB 231900Z AUTO 17007KT 9999 FEW048 SCT050 BKN100 19/14 Q1013 NOSIG
RJBB 231830Z AUTO 17011KT 9999 FEW048 BKN100 OVC150 19/14 Q1014 NOSIG
RJBB 231800Z AUTO 17007KT 9999 BKN048 OVC120 19/14 Q1014 NOSIG
RJBB 231730Z AUTO 15006KT 9999 SCT046 SCT050 BKN110 19/14 Q1014 NOSIG
RJBB 231700Z AUTO 15007KT 9999 FEW046 SCT150 19/14 Q1014 NOSIG
RJBB 231630Z AUTO 17008KT 9999 NSC 19/15 Q1015 NOSIG
RJBB 231600Z AUTO 16008KT 9999 NSC 19/15 Q1015 NOSIG
RJBB 231530Z AUTO 17010KT 9999 NCD 20/14 Q1015 NOSIG
RJBB 231500Z AUTO 16008KT 9999 NCD 19/14 Q1016 NOSIG
RJBB 231430Z AUTO 17011KT 9999 NCD 19/14 Q1016 NOSIG
RJBB 231400Z AUTO 17010KT 9999 NCD 19/14 Q1016 NOSIG
RJBB 231330Z 17010KT 9999 FEW040 SCT/// 19/14 Q1017 NOSIG
RJBB 231300Z 17011KT 9999 FEW040 19/14 Q1017 NOSIG
RJBB 231230Z 18012KT 9999 FEW040 BKN/// 20/13 Q1017 NOSIG
RJBB 231200Z 18008KT 9999 FEW040 SCT150 BKN/// 20/13 Q1017 NOSIG
RJBB 231130Z 18008KT 9999 FEW040 SCT150 BKN/// 19/13 Q1017 NOSIG
RJBB 231100Z 19009KT 9999 FEW040 BKN150 BKN/// 19/13 Q1017 NOSIG
RJBB 231030Z 20012KT 9999 FEW040 SCT140 BKN/// 19/13 Q1017 NOSIG
RJBB 231000Z 20012KT 9999 FEW030 BKN160 BKN/// 20/13 Q1016 NOSIG
RJBB 230930Z 21013KT 9999 FEW030 BKN180 BKN/// 19/13 Q1016 NOSIG
RJBB 230900Z 22013KT 9999 FEW030 BKN180 BKN/// 20/13 Q1016 NOSIG
RJBB 230830Z 22015KT 9999 FEW035 SCT160 BKN/// 20/13 Q1015 NOSIG
RJBB 230800Z 22015KT 9999 FEW040 SCT160 BKN/// 21/13 Q1015 NOSIG
RJBB 230730Z 22016KT 9999 FEW040 SCT180 BKN/// 21/13 Q1015 NOSIG
RJBB 230700Z 22015KT 9999 FEW040 BKN/// 22/13 Q1015 NOSIG
RJBB 230630Z 22017KT 9999 FEW035 BKN/// 23/13 Q1015 NOSIG
RJBB 230600Z 23016KT 9999 FEW040 BKN/// 24/13 Q1015 NOSIG
RJBB 230530Z 23016KT 9999 FEW040 BKN/// 24/13 Q1016 NOSIG
RJBB 230500Z 22017KT 9999 FEW035 BKN/// 23/13 Q1016 NOSIG
RJBB 230430Z 22018KT 9999 FEW035 BKN/// 22/13 Q1016 NOSIG
RJBB 230400Z 22017KT 9999 FEW040 BKN/// 23/13 Q1017 NOSIG
RJBB 230330Z 22015KT 9999 FEW040 BKN/// 23/13 Q1017 NOSIG
RJBB 230300Z 23015KT 9999 FEW040 BKN/// 22/14 Q1017 NOSIG
RJBB 230230Z 25010KT 9999 FEW040 BKN/// 23/14 Q1017 NOSIG
RJBB 230228Z 26010KT 240V300 9999 FEW040 BKN/// 23/13 Q1017 RMK 1CU040 A3006
RJBB 230200Z 33006KT 280V340 9999 FEW040 BKN/// 22/13 Q1018 BECMG 26008KT
RJBB 230130Z 34004KT 9999 FEW035 BKN/// 21/13 Q1018 NOSIG
RJBB 230100Z 36005KT 9999 FEW035 BKN/// 22/14 Q1018 NOSIG
RJBB 230030Z 33005KT 9999 FEW035 BKN/// 21/14 Q1019 BECMG 26008KT
RJBB 230000Z VRB02KT 9999 FEW030 BKN/// 20/13 Q1019 BECMG 26005KT
RJBB 222330Z 01003KT 9999 FEW040 SCT/// 20/13 Q1019 NOSIG
RJBB 222300Z 36003KT CAVOK 19/14 Q1019 NOSIG
RJBB 222230Z VRB02KT CAVOK 18/13 Q1019 NOSIG
RJBB 222200Z 13003KT CAVOK 17/13 Q1019 NOSIG
RJBB 222130Z 11003KT CAVOK 17/14 Q1019 NOSIG
RJBB 222100Z 00000KT CAVOK 16/13 Q1019 NOSIG
RJBB 222030Z AUTO VRB01KT 9999 NSC 16/14 Q1018 NOSIG
RJBB 222000Z AUTO 13005KT 9999 NSC 17/13 Q1018 NOSIG
RJBB 221930Z AUTO 14006KT 9999 NCD 17/14 Q1018 BECMG 12004KT
RJBB 221900Z AUTO 14005KT 9999 NCD 16/14 Q1018 BECMG 12004KT
RJBB 221830Z AUTO 14004KT 9999 NCD 16/14 Q1018 NOSIG
RJBB 221800Z AUTO 14002KT 9999 NCD 16/14 Q1018 NOSIG
RJBB 221730Z AUTO 02002KT 8000 NCD 16/14 Q1018 NOSIG
RJBB 221700Z AUTO VRB02KT 6000 NCD 17/14 Q1018 NOSIG
RJBB 221630Z AUTO VRB01KT 9999 NCD 17/14 Q1018 NOSIG
RJBB 221600Z AUTO 10001KT 9999 NSC 17/14 Q1018 NOSIG
RJBB 221530Z AUTO 10004KT 9999 NSC 17/14 Q1018 NOSIG
RJBB 221500Z AUTO 13003KT 090V210 9999 NSC 17/14 Q1018 NOSIG
RJBB 221430Z AUTO 15003KT 9999 NSC 17/14 Q1018 NOSIG
RJBB 221400Z AUTO 15003KT 9999 NSC 17/14 Q1018 NOSIG
RJBB 221330Z 12003KT CAVOK 18/14 Q1019 NOSIG
RJBB 221300Z 19003KT 160V240 CAVOK 18/14 Q1019 NOSIG
RJBB 221230Z 21007KT CAVOK 18/13 Q1019 NOSIG